Junction City, CA

4:28 AM PDT on May 22, 2015 (GMT -0700)
Arcata | | Change Station
CLOSE
Current Station
Airport
Location: Arcata,
Elevation: 217 ft
Nearby Weather Stations

Elev 217 ft 40.98 °N, 124.10 °W | Updated 11 minutes ago

Overcast
Overcast
52 °F
Feels Like 52 °F
N
7
Wind Variable Wind from NNW

Today
High -- | Low -- °F
--% Chance of Precip.
Yesterday
High -- | Low -- °F
Precip. -- in
5:49 AM 8:29 PM
Waxing Crescent, 20% visible
Pressure 30.01 in
Visibility 5.0 miles
Clouds Few 900 ft
Overcast 2600 ft
Dew Point 52 °F
Humidity 100%
Rainfall 0.00 in
Snow Depth Not available.
UV 0 out of 12
Pollen 6.60 out of 12
Air Quality Not available.
Flu Activity Sporadic
SPECI KACV 221117Z AUTO 33006KT 5SM BR FEW009 OVC026 11/11 A3001 RMK AO2 T01110111

More Conditions Fewer Conditions

Pressure 30.01 in
Visibility 5.0 miles
Clouds Few 900 ft
Overcast 2600 ft
Dew Point 52 °F
Humidity 100%
Rainfall 0.00 in
Snow Depth Not available.
UV 0 out of 12
Pollen 6.60 out of 12
Air Quality Not available.
Flu Activity Sporadic
SPECI KACV 221117Z AUTO 33006KT 5SM BR FEW009 OVC026 11/11 A3001 RMK AO2 T01110111

More Conditions Fewer Conditions

10-Day Weather Forecast

Almanac

Astronomy

May. 22, 2015 Rise Set
Actual Time
Civil Twilight
Nautical Twilight
Astronomical Twilight
Moon
Length of Visible Light
Length of Day
Tomorrow will be .
, % of the Moon is Illuminated

Today's Extremes

State Highs State Lows

Community

WunderPhotos

Upload Photos

1,823,203 photos uploaded!

WunderBlogs® & News

Nearby

Air Quality

  Air Quality AQ Index Pollutant
Not available.

Snow Depth

Station Depth Elevation

Earthquake Activity

City Distance Mag. Time & Date
Minimum magnitude displayed is 2.5.

Coastal Water Temperatures

Place Temperature

Stations

Nearby Weather Stations

Station Location Temp. Windchill Dew Point Humidity Wind Precip. Elev Updated Type